Map

Track Data

SID SEASON NUMBER BASIN SUBBASIN NAME ISO_TIME NATURE LAT LON WMO_WIND WMO_PRES WMO_AGENCY TRACK_TYPE DIST2LAND LANDFALL IFLAG USA_AGENCY USA_ATCF_ID USA_LAT USA_LON USA_RECORD USA_STATUS USA_WIND USA_PRES USA_SSHS USA_R34_NE USA_R34_SE USA_R34_SW USA_R34_NW USA_R50_NE USA_R50_SE USA_R50_SW USA_R50_NW USA_R64_NE USA_R64_SE USA_R64_SW USA_R64_NW USA_POCI USA_ROCI USA_RMW USA_EYE TOKYO_LAT TOKYO_LON TOKYO_GRADE TOKYO_WIND TOKYO_PRES TOKYO_R50_DIR TOKYO_R50_LONG TOKYO_R50_SHORT TOKYO_R30_DIR TOKYO_R30_LONG TOKYO_R30_SHORT TOKYO_LAND CMA_LAT CMA_LON CMA_CAT CMA_WIND CMA_PRES HKO_LAT HKO_LON HKO_CAT HKO_WIND HKO_PRES NEWDELHI_LAT NEWDELHI_LON NEWDELHI_GRADE NEWDELHI_WIND NEWDELHI_PRES NEWDELHI_CI NEWDELHI_DP NEWDELHI_POCI REUNION_LAT REUNION_LON REUNION_TYPE REUNION_WIND REUNION_PRES REUNION_TNUM REUNION_CI REUNION_RMW REUNION_R34_NE REUNION_R34_SE REUNION_R34_SW REUNION_R34_NW REUNION_R50_NE REUNION_R50_SE REUNION_R50_SW REUNION_R50_NW REUNION_R64_NE REUNION_R64_SE REUNION_R64_SW REUNION_R64_NW BOM_LAT BOM_LON BOM_TYPE BOM_WIND BOM_PRES BOM_TNUM BOM_CI BOM_RMW BOM_R34_NE BOM_R34_SE BOM_R34_SW BOM_R34_NW BOM_R50_NE BOM_R50_SE BOM_R50_SW BOM_R50_NW BOM_R64_NE BOM_R64_SE BOM_R64_SW BOM_R64_NW BOM_ROCI BOM_POCI BOM_EYE BOM_POS_METHOD BOM_PRES_METHOD NADI_LAT NADI_LON NADI_CAT NADI_WIND NADI_PRES WELLINGTON_LAT WELLINGTON_LON WELLINGTON_WIND WELLINGTON_PRES DS824_LAT DS824_LON DS824_STAGE DS824_WIND DS824_PRES TD9636_LAT TD9636_LON TD9636_STAGE TD9636_WIND TD9636_PRES TD9635_LAT TD9635_LON TD9635_WIND TD9635_PRES TD9635_ROCI NEUMANN_LAT NEUMANN_LON NEUMANN_CLASS NEUMANN_WIND NEUMANN_PRES MLC_LAT MLC_LON MLC_CLASS MLC_WIND MLC_PRES USA_GUST BOM_GUST BOM_GUST_PER REUNION_GUST REUNION_GUST_PER USA_SEAHGT USA_SEARAD_NE USA_SEARAD_SE USA_SEARAD_SW USA_SEARAD_NW STORM_SPEED STORM_DIR
1987110S10179 1987 28 SP MM ZUMAN 1987-04-19 18:00:00 TS -9.50000 179.100 main 754 739 O_________O_O_ jtwc_sh SH251987 -9.50000 179.100 25 -1 -9.50000 179.100 1 25 -9.50000 179.100 TC 25 10 100
1987110S10179 1987 28 SP MM ZUMAN 1987-04-19 21:00:00 TS -9.58355 179.596 main 739 739 P_________P_P_ SH251987 -9.59263 179.597 25 -1 -9.56540 179.592 1 25 -9.59263 179.597 TC 25 10 96
1987110S10179 1987 28 SP MM ZUMAN 1987-04-20 00:00:00 TS -9.60000 180.100 main 739 739 O_________O_O_ jtwc_sh SH251987 -9.60000 -179.900 25 -1 -9.60000 -179.900 1 25 -9.60000 -179.900 TC 25 10 86
1987110S10179 1987 28 SP MM ZUMAN 1987-04-20 03:00:00 TS -9.51905 180.615 main 754 754 P_________P_P_ SH251987 -9.48496 -179.392 25 -1 -9.58723 -179.371 1 25 -9.48496 -179.392 TC 25 10 82
1987110S10179 1987 28 SP MM ZUMAN 1987-04-20 06:00:00 TS -9.45502 181.116 main 761 757 O_________P_O_ jtwc_sh SH251987 -9.40000 -178.900 25 -1 -9.56507 -178.851 1 25 -9.40000 -178.900 TC 25 10 89
1987110S10179 1987 28 SP MM ZUMAN 1987-04-20 09:00:00 TS -9.50183 181.633 main 757 708 P_________P_P_ SH251987 -9.46009 -178.360 25 -1 -9.58532 -178.381 1 25 -9.46009 -178.360 TC 25 9 106
1987110S10179 1987 28 SP MM ZUMAN 1987-04-20 12:00:00 TS -9.70000 182.000 main 708 682 O_________O_O_ jtwc_sh SH251987 -9.70000 -178.000 25 -1 -9.70000 -178.000 1 25 -9.70000 -178.000 TC 25 7 150
1987110S10179 1987 28 SP MM ZUMAN 1987-04-20 15:00:00 TS -10.1375 182.001 main 682 652 P_________P_P_ SH251987 -10.1849 -178.092 27 -1 -10.0427 -177.814 1 26 -10.1849 -178.092 TC 27 9 182
1987110S10179 1987 28 SP MM ZUMAN 1987-04-20 18:00:00 TS -10.6238 181.964 main 652 611 O_________P_O_ jtwc_sh SH251987 -10.7000 -178.200 30 -1 -10.4715 -177.708 1 27 -10.7000 -178.200 TC 30 9 167
1987110S10179 1987 28 SP MM ZUMAN 1987-04-20 21:00:00 TS -10.9799 182.207 main 611 562 P_________P_P_ SH251987 -11.0250 -177.890 30 -1 -10.8895 -177.598 1 28 -11.0250 -177.890 TC 30 9 133
1987110S10179 1987 28 SP MM ZUMAN 1987-04-21 00:00:00 TS -11.2000 182.600 main 562 518 O_________O_O_ jtwc_sh SH251987 -11.2000 -177.400 30 -1 -11.2000 -177.400 1 30 -11.2000 -177.400 TC 30 9 109
1987110S10179 1987 28 SP MM ZUMAN 1987-04-21 03:00:00 TS -11.2646 183.058 main 509 477 P_________P_P_ SH251987 -11.2525 -176.915 30 -1 -11.2888 -176.996 1 30 -11.2525 -176.915 TC 30 10 91
1987110S10179 1987 28 SP MM ZUMAN 1987-04-21 06:00:00 TS -11.2193 183.568 main 468 431 O_________P_O_ jtwc_sh SH251987 -11.2000 -176.400 30 -1 -11.2580 -176.497 1 30 -11.2000 -176.400 TC 30 10 82
1987110S10179 1987 28 SP MM ZUMAN 1987-04-21 09:00:00 TS -11.1310 184.089 main 431 397 P_________P_P_ SH251987 -11.1225 -175.892 30 -1 -11.1481 -175.949 1 30 -11.1225 -175.892 TC 30 10 78
1987110S10179 1987 28 SP MM ZUMAN 1987-04-21 12:00:00 TS -11.0000 184.600 main 397 376 O_________O_O_ jtwc_sh SH251987 -11.0000 -175.400 30 -1 -11.0000 -175.400 1 30 -11.0000 -175.400 TC 30 10 74
1987110S10179 1987 28 SP MM ZUMAN 1987-04-21 15:00:00 TS -10.8522 185.061 main 370 364 P_________P_P_ SH251987 -10.8574 -174.950 30 -1 -10.8419 -174.917 1 30 -10.8574 -174.950 TC 30 10 71
1987110S10179 1987 28 SP MM ZUMAN 1987-04-21 18:00:00 TS -10.6874 185.519 main 364 354 O_________P_O_ jtwc_sh SH251987 -10.7000 -174.500 30 -1 -10.6621 -174.442 1 30 -10.7000 -174.500 TC 30 10 70
1987110S10179 1987 28 SP MM ZUMAN 1987-04-21 21:00:00 TS -10.5187 186.005 main 360 349 P_________P_P_ SH251987 -10.5275 -174.007 30 -1 -10.5013 -173.970 1 30 -10.5275 -174.007 TC 30 8 73
1987110S10179 1987 28 SP MM ZUMAN 1987-04-22 00:00:00 TS -10.4462 186.308 30 997 wellington main 360 342 O_______O_O_O_ jtwc_sh SH251987 -10.4000 -173.500 30 -1 -11.0000 -176.000 30 997 -10.4000 -173.500 1 30 -10.4000 -173.500 TC 30 6 85
1987110S10179 1987 28 SP MM ZUMAN 1987-04-22 03:00:00 TS -10.4661 186.643 main 342 325 P_______P_P_P_ SH251987 -10.3550 -172.993 30 -1 -11.0951 -175.535 30 997 -10.3738 -172.997 1 30 -10.3550 -172.993 TC 30 7 100
1987110S10179 1987 28 SP MM ZUMAN 1987-04-22 06:00:00 TS -10.5640 187.001 30 997 wellington main 325 313 O_______O_P_O_ jtwc_sh SH251987 -10.4000 -172.500 30 -1 -11.2000 -175.000 30 997 -10.4151 -172.498 1 30 -10.4000 -172.500 TC 30 8 109
1987110S10179 1987 28 SP MM ZUMAN 1987-04-22 09:00:00 TS -10.7191 187.394 main 313 291 P_______P_P_P_ SH251987 -10.5125 -172.028 30 -1 -11.3274 -174.345 32 996 -10.5239 -172.025 1 30 -10.5125 -172.028 TC 30 9 111
1987110S10179 1987 28 SP MM ZUMAN 1987-04-22 12:00:00 TS -10.9000 187.900 35 995 wellington main 292 279 O_______O_O_O_ jtwc_sh SH251987 -10.7000 -171.600 30 -1 -11.5000 -173.600 35 995 -10.7000 -171.600 1 30 -10.7000 -171.600 TC 30 11 113
1987110S10179 1987 28 SP MM ZUMAN 1987-04-22 15:00:00 TS -11.1243 188.388 main 282 268 P_______P_P_P_ SH251987 -10.9199 -171.220 30 -1 -11.7427 -172.770 37 992 -10.9147 -171.238 1 31 -10.9199 -171.220 TC 30 10 119
1987110S10179 1987 28 SP MM ZUMAN 1987-04-22 18:00:00 TS -11.3987 188.819 40 990 wellington main 268 259 O_______O_P_O_ jtwc_sh SH251987 -11.2000 -170.900 30 -1 -12.0000 -172.000 40 990 -11.1947 -170.925 1 32 -11.2000 -170.900 TC 30 9 127
1987110S10179 1987 28 SP MM ZUMAN 1987-04-22 21:00:00 TS -11.6898 189.156 main 266 257 P_______P_P_P_ SH251987 -11.5199 -170.635 32 -1 -12.1921 -171.455 42 988 -11.5273 -170.650 1 33 -11.5199 -170.635 TC 32 9 135
1987110S10179 1987 28 SP MM ZUMAN 1987-04-23 00:00:00 TS -12.0250 189.450 45 987 wellington main 265 250 O_______O_O_O_ jtwc_sh SH251987 -11.9000 -170.400 35 0 -12.4000 -171.000 45 987 -11.9000 -170.400 2 35 -11.9000 -170.400 TC 35 9 140
1987110S10179 1987 28 SP MM ZUMAN 1987-04-23 03:00:00 TS -12.4147 189.770 main 261 255 P_______P_P_P_ SH251987 -12.3425 -170.143 37 0 -12.6850 -170.485 47 986 -12.2889 -170.149 2 37 -12.3425 -170.143 TC 37 10 143
1987110S10179 1987 28 SP MM ZUMAN 1987-04-23 06:00:00 TS -12.8281 190.070 50 985 wellington main 268 264 O_______O_P_O_ jtwc_sh SH251987 -12.8000 -169.900 40 0 -13.0000 -170.000 50 985 -12.7124 -169.920 2 40 -12.8000 -169.900 TC 40 10 145
1987110S10179 1987 28 SP MM ZUMAN 1987-04-23 09:00:00 TS -13.2099 190.337 main 276 276 P_______P_P_P_ SH251987 -13.2075 -169.692 42 0 -13.2700 -169.562 52 982 -13.1546 -169.705 2 42 -13.2075 -169.692 TC 42 9 148
1987110S10179 1987 28 SP MM ZUMAN 1987-04-23 12:00:00 TS -13.6000 190.575 55 980 wellington main 302 302 O_______O_O_O_ jtwc_sh SH251987 -13.6000 -169.500 45 0 -13.6000 -169.200 55 980 -13.6000 -169.500 2 45 -13.6000 -169.500 TC 45 9 151
1987110S10179 1987 28 SP MM ZUMAN 1987-04-23 15:00:00 TS -14.0218 190.801 main 324 324 P_______P_P_P_ SH251987 -13.9925 -169.300 47 0 -14.0774 -168.905 57 977 -14.0249 -169.293 2 47 -13.9925 -169.300 TC 47 10 154
1987110S10179 1987 28 SP MM ZUMAN 1987-04-23 18:00:00 TS -14.4625 191.002 60 975 wellington main 353 353 O_______O_P_O_ jtwc_sh SH251987 -14.4000 -169.100 50 0 -14.6000 -168.700 60 975 -14.4499 -169.092 2 50 -14.4000 -169.100 TC 50 10 157
1987110S10179 1987 28 SP MM ZUMAN 1987-04-23 21:00:00 TS -14.9118 191.186 main 386 386 P_______P_P_P_ SH251987 -14.8500 -168.900 52 0 -15.0725 -168.562 60 975 -14.8749 -168.896 2 52 -14.8500 -168.900 TC 52 10 159
1987110S10179 1987 28 SP MM ZUMAN 1987-04-24 00:00:00 TS -15.3500 191.350 60 975 wellington main 412 417 O_______O_O_O_ jtwc_sh SH251987 -15.3000 -168.700 55 0 -15.5000 -168.500 60 975 -15.3000 -168.700 2 55 -15.3000 -168.700 TC 55 9 160
1987110S10179 1987 28 SP MM ZUMAN 1987-04-24 03:00:00 TS -15.7407 191.502 main 451 451 P_______P_P_P_ SH251987 -15.7000 -168.500 55 0 -15.8500 -168.485 60 975 -15.7127 -168.508 2 53 -15.7000 -168.500 TC 55 8 160
1987110S10179 1987 28 SP MM ZUMAN 1987-04-24 06:00:00 TS -16.1318 191.646 60 975 wellington main 482 482 O_______O_P_O_ jtwc_sh SH251987 -16.1000 -168.300 55 0 -16.2000 -168.500 60 975 -16.1274 -168.314 2 52 -16.1000 -168.300 TC 55 9 161
1987110S10179 1987 28 SP MM ZUMAN 1987-04-24 09:00:00 TS -16.5571 191.787 main 531 531 P_______P_P_P_ SH251987 -16.5350 -168.107 52 0 -16.6050 -168.522 57 977 -16.5533 -168.114 2 51 -16.5350 -168.107 TC 52 9 162
1987110S10179 1987 28 SP MM ZUMAN 1987-04-24 12:00:00 TS -17.0250 191.950 55 980 wellington main 575 575 O_______O_O_O_ jtwc_sh SH251987 -17.0000 -167.900 50 0 -17.1000 -168.500 55 980 -17.0000 -167.900 2 50 -17.0000 -167.900 TC 50 10 161
1987110S10179 1987 28 SP MM ZUMAN 1987-04-24 15:00:00 TS -17.5406 192.143 main 619 619 P_______P_P_P_ SH251987 -17.4925 -167.657 50 0 -17.7199 -168.402 55 980 -17.4576 -167.712 2 48 -17.4925 -167.657 TC 50 11 159
1987110S10179 1987 28 SP MM ZUMAN 1987-04-24 18:00:00 TS -18.0848 192.374 55 980 wellington main 688 688 O_______O_P_O_ jtwc_sh SH251987 -18.0000 -167.400 50 0 -18.4000 -168.200 55 980 -17.9391 -167.502 2 47 -18.0000 -167.400 TC 50 12 157
1987110S10179 1987 28 SP MM ZUMAN 1987-04-24 21:00:00 TS -18.6195 192.620 main 742 742 P_______P_P_P_ SH251987 -18.4848 -167.179 47 0 -19.0573 -167.917 52 982 -18.4511 -167.242 2 46 -18.4848 -167.179 TC 47 12 153
1987110S10179 1987 28 SP MM ZUMAN 1987-04-25 00:00:00 TS -19.1750 192.950 50 985 wellington main 820 820 O_______O_O_O_ jtwc_sh SH251987 -19.0000 -166.900 45 0 -19.7000 -167.500 50 985 -19.0000 -166.900 2 45 -19.0000 -166.900 TC 45 14 148
1987110S10179 1987 28 SP MM ZUMAN 1987-04-25 03:00:00 TS -19.7664 193.385 main 897 897 P_______P_P_P_ SH251987 -19.5773 -166.510 42 0 -20.3224 -166.960 50 985 -19.5885 -166.480 2 42 -19.5773 -166.510 TC 42 15 142
1987110S10179 1987 28 SP MM ZUMAN 1987-04-25 06:00:00 TS -20.3779 193.932 50 985 wellington main 982 982 O_______O_P_O_ jtwc_sh SH251987 -20.2000 -166.000 40 0 -20.9000 -166.300 50 985 -20.2115 -165.971 2 40 -20.2000 -166.000 TC 40 17 138
1987110S10179 1987 28 SP MM ZUMAN 1987-04-25 09:00:00 TS -20.9883 194.560 main 1081 1081 P_______P_P_P_ SH251987 -20.8423 -165.402 37 0 -21.4148 -165.579 47 986 -20.8537 -165.376 2 37 -20.8423 -165.402 TC 37 18 134
1987110S10179 1987 28 SP MM ZUMAN 1987-04-25 12:00:00 TS -21.6000 195.275 45 987 wellington main 1179 1179 O_______O_O_O_ jtwc_sh SH251987 -21.5000 -164.700 35 0 -21.9000 -164.800 45 987 -21.5000 -164.700 2 35 -21.5000 -164.700 TC 35 18 132
1987110S10179 1987 28 SP MM ZUMAN 1987-04-25 15:00:00 TS -22.2145 196.027 main 1278 1278 P_______P_P_P_ SH251987 -22.1573 -163.930 35 0 -22.4062 -164.066 40 991 -22.1372 -163.966 2 33 -22.1573 -163.930 TC 35 19 129
1987110S10179 1987 28 SP MM ZUMAN 1987-04-25 18:00:00 TS -22.8126 196.866 35 995 wellington main 1390 1390 O_______O_P_O_ jtwc_sh SH251987 -22.8000 -163.100 35 0 -22.9000 -163.200 35 995 -22.7724 -163.154 2 32 -22.8000 -163.100 TC 35 20 127
1987110S10179 1987 28 SP MM ZUMAN 1987-04-25 21:00:00 TS -23.4062 197.755 main 1503 1503 P_______P_P_P_ SH251987 -23.4220 -162.264 32 -1 -23.3628 -162.080 32 996 -23.3962 -162.290 2 31 -23.4220 -162.264 TC 32 20 126
1987110S10179 1987 28 SP MM ZUMAN 1987-04-26 00:00:00 TS -23.9846 198.646 30 997 wellington main 1608 1608 O_______O_O_O_ jtwc_sh SH251987 -24.0000 -161.400 30 -1 -23.8000 -160.800 30 997 -24.0000 -161.400 1 30 -24.0000 -161.400 TC 30 19 125
1987110S10179 1987 28 SP MM ZUMAN 1987-04-26 03:00:00 TS -24.5257 199.494 main 1713 1713 P_________P_P_ SH251987 -24.4996 -160.506 30 -1 -24.5779 -160.505 1 28 -24.4996 -160.506 TC 30 19 124
1987110S10179 1987 28 SP MM ZUMAN 1987-04-26 06:00:00 TS -25.0445 200.397 main 1818 1818 O_________P_O_ jtwc_sh SH251987 -25.0000 -159.600 30 -1 -25.1335 -159.608 1 27 -25.0000 -159.600 TC 30 20 124
1987110S10179 1987 28 SP MM ZUMAN 1987-04-26 09:00:00 TS -25.6081 201.298 main 1930 1930 P_________P_P_ SH251987 -25.5760 -158.700 27 -1 -25.6724 -158.707 1 26 -25.5760 -158.700 TC 27 20 125
1987110S10179 1987 28 SP MM ZUMAN 1987-04-26 12:00:00 TS -26.2000 202.200 main 2042 O_________O_O_ jtwc_sh SH251987 -26.2000 -157.800 25 -1 -26.2000 -157.800 1 25 -26.2000 -157.800 TC 25 20 126

Digital Typhoon Data and Search

About IBTrACS Database

This database is a web-friendly format of International Best Track Archive for Climate Stewardship (IBTrACS), a global best track data archive curated by NOAA dating back to 1842.

Updated: 2021-10-21